sensor_id;sensor_type;location;lat;lon;timestamp;pressure;altitude;pressure_sealevel;temperature;humidity
5283;BME280;15376;48.540;9.268;2022-10-03T00:19:46;98286.72;;;8.85;100.00
5283;BME280;15376;48.540;9.268;2022-10-03T00:27:37;98293.38;;;8.89;100.00
5283;BME280;15376;48.540;9.268;2022-10-03T00:30:17;98294.00;;;9.00;100.00
5283;BME280;15376;48.540;9.268;2022-10-03T00:33:12;98310.34;;;8.96;100.00
5283;BME280;15376;48.540;9.268;2022-10-03T00:36:26;98300.03;;;8.93;100.00
5283;BME280;15376;48.540;9.268;2022-10-03T00:41:59;98314.16;;;8.76;100.00
5283;BME280;15376;48.540;9.268;2022-10-03T00:53:22;98320.56;;;8.73;100.00
5283;BME280;15376;48.540;9.268;2022-10-03T00:56:02;98314.66;;;8.61;100.00
5283;BME280;15376;48.540;9.268;2022-10-03T00:58:56;98317.94;;;8.73;100.00
5283;BME280;15376;48.540;9.268;2022-10-03T01:04:13;98306.50;;;8.73;100.00
5283;BME280;15376;48.540;9.268;2022-10-03T01:06:52;98299.09;;;8.76;100.00
5283;BME280;15376;48.540;9.268;2022-10-03T01:09:36;98314.94;;;9.12;100.00
5283;BME280;15376;48.540;9.268;2022-10-03T01:12:24;98310.81;;;9.35;100.00
5283;BME280;15376;48.540;9.268;2022-10-03T01:25:51;98314.50;;;9.42;100.00
5283;BME280;15376;48.540;9.268;2022-10-03T01:31:08;98309.38;;;9.41;100.00
5283;BME280;15376;48.540;9.268;2022-10-03T01:33:45;98318.06;;;9.51;100.00
5283;BME280;15376;48.540;9.268;2022-10-03T01:36:22;98305.09;;;9.48;100.00
5283;BME280;15376;48.540;9.268;2022-10-03T01:44:12;98336.84;;;9.57;100.00
5283;BME280;15376;48.540;9.268;2022-10-03T01:51:59;98345.78;;;9.56;100.00
5283;BME280;15376;48.540;9.268;2022-10-03T01:54:58;98350.91;;;9.58;100.00
5283;BME280;15376;48.540;9.268;2022-10-03T01:57:41;98348.75;;;9.61;100.00
5283;BME280;15376;48.540;9.268;2022-10-03T02:00:15;98348.47;;;9.64;100.00
5283;BME280;15376;48.540;9.268;2022-10-03T02:05:48;98358.75;;;9.67;100.00
5283;BME280;15376;48.540;9.268;2022-10-03T02:13:16;98378.00;;;9.69;100.00
5283;BME280;15376;48.540;9.268;2022-10-03T02:21:16;98380.56;;;9.79;100.00
5283;BME280;15376;48.540;9.268;2022-10-03T02:23:44;98382.38;;;9.79;100.00
5283;BME280;15376;48.540;9.268;2022-10-03T02:29:29;98384.78;;;9.90;100.00
5283;BME280;15376;48.540;9.268;2022-10-03T02:35:16;98357.88;;;9.85;100.00
5283;BME280;15376;48.540;9.268;2022-10-03T02:40:56;98372.81;;;9.86;100.00
5283;BME280;15376;48.540;9.268;2022-10-03T03:03:23;98383.94;;;9.89;100.00
5283;BME280;15376;48.540;9.268;2022-10-03T03:09:10;98384.09;;;9.88;100.00
5283;BME280;15376;48.540;9.268;2022-10-03T03:17:15;98373.78;;;9.85;100.00
5283;BME280;15376;48.540;9.268;2022-10-03T03:25:31;98383.00;;;9.98;100.00
5283;BME280;15376;48.540;9.268;2022-10-03T03:28:24;98372.72;;;10.03;100.00
5283;BME280;15376;48.540;9.268;2022-10-03T03:31:28;98365.91;;;10.01;100.00
5283;BME280;15376;48.540;9.268;2022-10-03T03:37:10;98359.69;;;9.84;100.00
5283;BME280;15376;48.540;9.268;2022-10-03T03:45:29;98353.34;;;9.77;100.00
5283;BME280;15376;48.540;9.268;2022-10-03T04:01:45;98354.22;;;9.34;100.00
5283;BME280;15376;48.540;9.268;2022-10-03T04:07:35;98353.31;;;9.25;100.00
5283;BME280;15376;48.540;9.268;2022-10-03T04:40:57;98360.00;;;8.94;100.00
5283;BME280;15376;48.540;9.268;2022-10-03T04:43:34;98382.19;;;9.11;100.00
5283;BME280;15376;48.540;9.268;2022-10-03T04:46:29;98364.91;;;9.07;100.00
5283;BME280;15376;48.540;9.268;2022-10-03T04:49:15;98384.06;;;9.18;100.00
5283;BME280;15376;48.540;9.268;2022-10-03T04:54:56;98384.81;;;9.28;100.00
5283;BME280;15376;48.540;9.268;2022-10-03T05:00:30;98382.84;;;9.30;100.00
5283;BME280;15376;48.540;9.268;2022-10-03T05:06:03;98395.63;;;9.35;100.00
5283;BME280;15376;48.540;9.268;2022-10-03T05:08:51;98392.91;;;9.27;100.00
5283;BME280;15376;48.540;9.268;2022-10-03T05:14:37;98401.69;;;9.27;100.00
5283;BME280;15376;48.540;9.268;2022-10-03T05:17:16;98401.78;;;9.18;100.00
5283;BME280;15376;48.540;9.268;2022-10-03T05:22:23;98402.81;;;9.25;100.00
5283;BME280;15376;48.540;9.268;2022-10-03T05:25:03;98390.88;;;9.21;100.00
5283;BME280;15376;48.540;9.268;2022-10-03T05:30:07;98401.53;;;9.29;100.00
5283;BME280;15376;48.540;9.268;2022-10-03T05:32:41;98415.78;;;9.28;100.00
5283;BME280;15376;48.540;9.268;2022-10-03T05:48:27;98419.13;;;9.30;100.00
5283;BME280;15376;48.540;9.268;2022-10-03T05:51:19;98427.75;;;9.32;100.00
5283;BME280;15376;48.540;9.268;2022-10-03T05:57:13;98443.06;;;9.38;100.00
5283;BME280;15376;48.540;9.268;2022-10-03T06:00:01;98435.41;;;9.35;100.00
5283;BME280;15376;48.540;9.268;2022-10-03T06:18:23;98466.50;;;9.68;100.00
5283;BME280;15376;48.540;9.268;2022-10-03T06:24:10;98462.19;;;9.67;100.00
5283;BME280;15376;48.540;9.268;2022-10-03T06:29:58;98475.16;;;9.70;100.00
5283;BME280;15376;48.540;9.268;2022-10-03T06:35:55;98460.28;;;9.60;100.00
5283;BME280;15376;48.540;9.268;2022-10-03T06:44:18;98486.22;;;9.84;100.00
5283;BME280;15376;48.540;9.268;2022-10-03T06:47:13;98473.41;;;9.79;100.00
5283;BME280;15376;48.540;9.268;2022-10-03T06:52:48;98494.97;;;10.02;100.00
5283;BME280;15376;48.540;9.268;2022-10-03T06:55:48;98494.66;;;10.05;100.00
5283;BME280;15376;48.540;9.268;2022-10-03T07:26:21;98510.66;;;10.65;100.00
5283;BME280;15376;48.540;9.268;2022-10-03T07:29:26;98518.31;;;10.68;100.00
5283;BME280;15376;48.540;9.268;2022-10-03T07:44:05;98518.38;;;10.84;100.00
5283;BME280;15376;48.540;9.268;2022-10-03T07:47:16;98519.22;;;10.85;100.00
5283;BME280;15376;48.540;9.268;2022-10-03T07:52:38;98520.09;;;11.44;100.00
5283;BME280;15376;48.540;9.268;2022-10-03T07:55:55;98515.69;;;11.77;100.00
5283;BME280;15376;48.540;9.268;2022-10-03T07:58:35;98513.84;;;12.10;100.00
5283;BME280;15376;48.540;9.268;2022-10-03T08:06:22;98517.34;;;12.34;100.00
5283;BME280;15376;48.540;9.268;2022-10-03T08:14:50;98520.00;;;12.34;100.00
5283;BME280;15376;48.540;9.268;2022-10-03T08:25:25;98530.50;;;12.36;100.00
5283;BME280;15376;48.540;9.268;2022-10-03T09:03:34;98548.13;;;13.17;100.00
5283;BME280;15376;48.540;9.268;2022-10-03T09:11:48;98542.41;;;13.20;100.00
5283;BME280;15376;48.540;9.268;2022-10-03T09:19:49;98545.31;;;13.02;100.00
5283;BME280;15376;48.540;9.268;2022-10-03T09:22:36;98550.63;;;13.18;100.00
5283;BME280;15376;48.540;9.268;2022-10-03T09:25:14;98547.13;;;13.10;100.00
5283;BME280;15376;48.540;9.268;2022-10-03T09:36:53;98553.28;;;13.18;100.00
5283;BME280;15376;48.540;9.268;2022-10-03T09:45:20;98536.09;;;14.43;100.00
5283;BME280;15376;48.540;9.268;2022-10-03T10:04:58;98510.59;;;20.81;71.95
5283;BME280;15376;48.540;9.268;2022-10-03T10:25:12;98519.75;;;15.77;100.00
5283;BME280;15376;48.540;9.268;2022-10-03T10:30:20;98527.94;;;14.74;100.00
5283;BME280;15376;48.540;9.268;2022-10-03T10:36:22;98534.28;;;14.73;100.00
5283;BME280;15376;48.540;9.268;2022-10-03T11:20:14;98499.41;;;14.52;100.00
5283;BME280;15376;48.540;9.268;2022-10-03T11:34:30;98498.53;;;14.74;100.00
5283;BME280;15376;48.540;9.268;2022-10-03T11:37:08;98492.22;;;14.82;97.04
5283;BME280;15376;48.540;9.268;2022-10-03T11:39:46;98479.22;;;14.93;94.73
5283;BME280;15376;48.540;9.268;2022-10-03T11:42:25;98486.13;;;15.53;93.15
5283;BME280;15376;48.540;9.268;2022-10-03T11:44:57;98484.72;;;16.00;85.76
5283;BME280;15376;48.540;9.268;2022-10-03T11:53:11;98485.00;;;16.95;79.94
5283;BME280;15376;48.540;9.268;2022-10-03T12:01:17;98464.94;;;16.91;73.39
5283;BME280;15376;48.540;9.268;2022-10-03T12:03:57;98467.00;;;16.89;79.08
5283;BME280;15376;48.540;9.268;2022-10-03T12:06:38;98476.94;;;16.95;76.97
5283;BME280;15376;48.540;9.268;2022-10-03T12:12:17;98462.81;;;15.90;82.41
5283;BME280;15376;48.540;9.268;2022-10-03T12:14:53;98486.81;;;16.05;84.82
5283;BME280;15376;48.540;9.268;2022-10-03T12:17:30;98475.28;;;15.61;87.57
5283;BME280;15376;48.540;9.268;2022-10-03T12:20:19;98482.75;;;15.30;92.71
5283;BME280;15376;48.540;9.268;2022-10-03T12:22:57;98470.34;;;15.44;94.06
5283;BME280;15376;48.540;9.268;2022-10-03T12:25:34;98474.47;;;15.61;90.18
5283;BME280;15376;48.540;9.268;2022-10-03T12:30:59;98481.41;;;15.55;90.17
5283;BME280;15376;48.540;9.268;2022-10-03T12:36:40;98475.16;;;15.70;92.75
5283;BME280;15376;48.540;9.268;2022-10-03T12:41:56;98461.03;;;16.04;90.29
5283;BME280;15376;48.540;9.268;2022-10-03T12:44:48;98452.97;;;15.97;88.43
5283;BME280;15376;48.540;9.268;2022-10-03T12:52:30;98448.72;;;15.24;89.92
5283;BME280;15376;48.540;9.268;2022-10-03T12:55:15;98447.50;;;15.26;89.24
5283;BME280;15376;48.540;9.268;2022-10-03T12:57:53;98449.50;;;15.18;86.39
5283;BME280;15376;48.540;9.268;2022-10-03T13:08:53;98415.91;;;14.79;85.79
5283;BME280;15376;48.540;9.268;2022-10-03T13:11:48;98414.16;;;14.72;85.51
5283;BME280;15376;48.540;9.268;2022-10-03T13:17:32;98428.44;;;14.79;90.50
5283;BME280;15376;48.540;9.268;2022-10-03T13:20:05;98432.28;;;14.91;88.69
5283;BME280;15376;48.540;9.268;2022-10-03T13:22:43;98418.53;;;14.94;87.28
5283;BME280;15376;48.540;9.268;2022-10-03T13:28:16;98423.47;;;15.12;92.87
5283;BME280;15376;48.540;9.268;2022-10-03T13:31:02;98424.88;;;15.08;92.06
5283;BME280;15376;48.540;9.268;2022-10-03T13:33:41;98417.19;;;15.19;88.63
5283;BME280;15376;48.540;9.268;2022-10-03T13:36:22;98401.63;;;15.29;90.70
5283;BME280;15376;48.540;9.268;2022-10-03T13:39:12;98417.81;;;15.57;88.54
5283;BME280;15376;48.540;9.268;2022-10-03T13:42:05;98422.75;;;15.60;87.80
5283;BME280;15376;48.540;9.268;2022-10-03T13:44:45;98420.47;;;15.79;85.86
5283;BME280;15376;48.540;9.268;2022-10-03T13:47:42;98427.59;;;15.93;88.85
5283;BME280;15376;48.540;9.268;2022-10-03T13:50:15;98420.66;;;15.77;82.24
5283;BME280;15376;48.540;9.268;2022-10-03T13:52:57;98406.81;;;15.52;84.12
5283;BME280;15376;48.540;9.268;2022-10-03T14:01:39;98418.59;;;15.15;87.16
5283;BME280;15376;48.540;9.268;2022-10-03T14:18:24;98404.41;;;15.21;90.36
5283;BME280;15376;48.540;9.268;2022-10-03T14:24:01;98395.66;;;14.91;91.34
5283;BME280;15376;48.540;9.268;2022-10-03T14:26:56;98400.09;;;14.84;93.26
5283;BME280;15376;48.540;9.268;2022-10-03T14:29:43;98400.66;;;14.80;94.83
5283;BME280;15376;48.540;9.268;2022-10-03T14:32:35;98394.22;;;14.74;92.23
5283;BME280;15376;48.540;9.268;2022-10-03T14:40:17;98401.16;;;14.68;94.50
5283;BME280;15376;48.540;9.268;2022-10-03T14:45:42;98406.31;;;14.55;94.01
5283;BME280;15376;48.540;9.268;2022-10-03T14:48:27;98378.03;;;14.46;95.54
5283;BME280;15376;48.540;9.268;2022-10-03T14:51:00;98387.78;;;14.54;95.08
5283;BME280;15376;48.540;9.268;2022-10-03T14:53:31;98394.34;;;14.51;92.56
5283;BME280;15376;48.540;9.268;2022-10-03T14:56:02;98395.34;;;14.50;92.04
5283;BME280;15376;48.540;9.268;2022-10-03T14:58:54;98398.94;;;14.57;93.17
5283;BME280;15376;48.540;9.268;2022-10-03T15:01:22;98397.47;;;14.55;94.73
5283;BME280;15376;48.540;9.268;2022-10-03T15:04:02;98388.53;;;14.48;93.77
5283;BME280;15376;48.540;9.268;2022-10-03T15:06:32;98389.34;;;14.48;94.76
5283;BME280;15376;48.540;9.268;2022-10-03T15:09:09;98389.41;;;14.40;95.98
5283;BME280;15376;48.540;9.268;2022-10-03T15:11:42;98384.47;;;14.37;97.27
5283;BME280;15376;48.540;9.268;2022-10-03T15:14:12;98369.00;;;14.32;95.79
5283;BME280;15376;48.540;9.268;2022-10-03T15:16:52;98373.13;;;14.35;93.82
5283;BME280;15376;48.540;9.268;2022-10-03T15:19:32;98354.16;;;14.30;91.43
5283;BME280;15376;48.540;9.268;2022-10-03T15:22:06;98356.19;;;14.28;95.28
5283;BME280;15376;48.540;9.268;2022-10-03T15:24:38;98381.16;;;14.50;92.10
5283;BME280;15376;48.540;9.268;2022-10-03T15:27:08;98372.50;;;14.48;90.30
5283;BME280;15376;48.540;9.268;2022-10-03T15:29:38;98369.72;;;14.56;92.61
5283;BME280;15376;48.540;9.268;2022-10-03T15:32:09;98378.31;;;14.51;90.34
5283;BME280;15376;48.540;9.268;2022-10-03T15:34:44;98371.19;;;14.58;92.95
5283;BME280;15376;48.540;9.268;2022-10-03T15:37:20;98379.31;;;14.50;93.59
5283;BME280;15376;48.540;9.268;2022-10-03T15:39:48;98357.19;;;14.42;95.67
5283;BME280;15376;48.540;9.268;2022-10-03T15:42:19;98366.31;;;14.47;94.57
5283;BME280;15376;48.540;9.268;2022-10-03T15:44:59;98359.41;;;14.23;99.72
5283;BME280;15376;48.540;9.268;2022-10-03T15:47:29;98366.78;;;14.21;98.88
5283;BME280;15376;48.540;9.268;2022-10-03T15:50:06;98360.41;;;14.22;99.12
5283;BME280;15376;48.540;9.268;2022-10-03T15:52:39;98363.81;;;14.16;95.55
5283;BME280;15376;48.540;9.268;2022-10-03T15:55:15;98371.28;;;14.21;95.06
5283;BME280;15376;48.540;9.268;2022-10-03T15:57:45;98358.84;;;14.13;92.57
5283;BME280;15376;48.540;9.268;2022-10-03T16:00:21;98374.31;;;14.03;97.53
5283;BME280;15376;48.540;9.268;2022-10-03T16:02:55;98363.97;;;14.00;94.37
5283;BME280;15376;48.540;9.268;2022-10-03T16:05:22;98360.31;;;14.01;92.01
5283;BME280;15376;48.540;9.268;2022-10-03T16:08:01;98369.59;;;14.05;94.18
5283;BME280;15376;48.540;9.268;2022-10-03T16:10:35;98348.06;;;13.92;93.92
5283;BME280;15376;48.540;9.268;2022-10-03T16:13:27;98355.50;;;13.82;100.00
5283;BME280;15376;48.540;9.268;2022-10-03T16:16:12;98375.75;;;13.76;98.04
5283;BME280;15376;48.540;9.268;2022-10-03T16:18:53;98344.78;;;13.52;100.00
5283;BME280;15376;48.540;9.268;2022-10-03T16:21:40;98352.69;;;13.46;100.00
5283;BME280;15376;48.540;9.268;2022-10-03T16:24:19;98371.53;;;13.44;100.00
5283;BME280;15376;48.540;9.268;2022-10-03T16:27:04;98371.81;;;13.26;100.00
5283;BME280;15376;48.540;9.268;2022-10-03T16:29:34;98345.50;;;13.00;100.00
5283;BME280;15376;48.540;9.268;2022-10-03T16:32:06;98376.66;;;13.00;100.00
5283;BME280;15376;48.540;9.268;2022-10-03T16:34:34;98358.16;;;12.76;100.00
5283;BME280;15376;48.540;9.268;2022-10-03T16:37:01;98373.31;;;12.75;100.00
5283;BME280;15376;48.540;9.268;2022-10-03T16:39:34;98376.72;;;12.61;100.00
5283;BME280;15376;48.540;9.268;2022-10-03T16:42:12;98381.16;;;12.38;100.00
5283;BME280;15376;48.540;9.268;2022-10-03T16:44:50;98354.75;;;12.12;100.00
5283;BME280;15376;48.540;9.268;2022-10-03T16:47:17;98370.25;;;12.08;100.00
5283;BME280;15376;48.540;9.268;2022-10-03T16:49:54;98347.34;;;11.75;100.00
5283;BME280;15376;48.540;9.268;2022-10-03T16:52:40;98382.63;;;11.77;100.00
5283;BME280;15376;48.540;9.268;2022-10-03T16:55:27;98379.94;;;11.60;100.00
5283;BME280;15376;48.540;9.268;2022-10-03T16:58:24;98377.28;;;11.44;100.00
5283;BME280;15376;48.540;9.268;2022-10-03T17:01:04;98373.28;;;11.32;100.00
5283;BME280;15376;48.540;9.268;2022-10-03T17:03:36;98370.97;;;11.13;100.00
5283;BME280;15376;48.540;9.268;2022-10-03T17:06:06;98379.25;;;11.01;100.00
5283;BME280;15376;48.540;9.268;2022-10-03T17:08:46;98385.03;;;10.89;100.00
5283;BME280;15376;48.540;9.268;2022-10-03T17:11:18;98376.56;;;10.77;100.00
5283;BME280;15376;48.540;9.268;2022-10-03T17:13:48;98387.16;;;10.69;100.00
5283;BME280;15376;48.540;9.268;2022-10-03T17:16:44;98386.25;;;10.52;100.00
5283;BME280;15376;48.540;9.268;2022-10-03T17:22:19;98390.44;;;10.55;100.00
5283;BME280;15376;48.540;9.268;2022-10-03T17:24:53;98378.13;;;10.54;100.00
5283;BME280;15376;48.540;9.268;2022-10-03T17:27:24;98380.75;;;10.46;100.00
5283;BME280;15376;48.540;9.268;2022-10-03T17:30:00;98381.84;;;10.27;100.00
5283;BME280;15376;48.540;9.268;2022-10-03T17:33:01;98381.22;;;10.07;100.00
5283;BME280;15376;48.540;9.268;2022-10-03T17:38:28;98370.72;;;9.72;100.00
5283;BME280;15376;48.540;9.268;2022-10-03T17:47:18;98357.94;;;9.23;100.00
5283;BME280;15376;48.540;9.268;2022-10-03T17:50:03;98345.69;;;9.05;100.00
5283;BME280;15376;48.540;9.268;2022-10-03T17:52:31;98349.63;;;9.00;100.00
5283;BME280;15376;48.540;9.268;2022-10-03T17:54:59;98366.88;;;9.05;100.00
5283;BME280;15376;48.540;9.268;2022-10-03T17:57:33;98356.66;;;8.92;100.00
5283;BME280;15376;48.540;9.268;2022-10-03T18:00:06;98367.50;;;8.98;100.00
5283;BME280;15376;48.540;9.268;2022-10-03T18:02:50;98361.56;;;8.87;100.00
5283;BME280;15376;48.540;9.268;2022-10-03T18:05:22;98375.88;;;8.94;100.00
5283;BME280;15376;48.540;9.268;2022-10-03T18:07:51;98375.66;;;8.87;100.00
5283;BME280;15376;48.540;9.268;2022-10-03T18:10:26;98379.75;;;8.99;100.00
5283;BME280;15376;48.540;9.268;2022-10-03T18:12:55;98373.84;;;9.06;100.00
5283;BME280;15376;48.540;9.268;2022-10-03T18:15:40;98373.25;;;9.12;100.00
5283;BME280;15376;48.540;9.268;2022-10-03T18:20:57;98359.59;;;8.89;100.00
5283;BME280;15376;48.540;9.268;2022-10-03T18:23:53;98366.44;;;8.74;100.00
5283;BME280;15376;48.540;9.268;2022-10-03T18:26:34;98374.66;;;8.71;100.00
5283;BME280;15376;48.540;9.268;2022-10-03T18:29:43;98371.00;;;8.54;100.00
5283;BME280;15376;48.540;9.268;2022-10-03T18:32:16;98367.34;;;8.37;100.00
5283;BME280;15376;48.540;9.268;2022-10-03T18:39:55;98367.94;;;8.21;100.00
5283;BME280;15376;48.540;9.268;2022-10-03T18:42:25;98365.44;;;8.20;100.00
5283;BME280;15376;48.540;9.268;2022-10-03T18:44:56;98356.66;;;8.19;100.00
5283;BME280;15376;48.540;9.268;2022-10-03T18:52:51;98358.31;;;8.20;100.00
5283;BME280;15376;48.540;9.268;2022-10-03T18:55:27;98337.69;;;7.96;100.00
5283;BME280;15376;48.540;9.268;2022-10-03T18:58:03;98353.09;;;8.01;100.00
5283;BME280;15376;48.540;9.268;2022-10-03T19:00:39;98342.16;;;7.96;100.00
5283;BME280;15376;48.540;9.268;2022-10-03T19:03:14;98369.94;;;8.10;100.00
5283;BME280;15376;48.540;9.268;2022-10-03T19:05:56;98363.81;;;8.09;100.00
5283;BME280;15376;48.540;9.268;2022-10-03T19:08:33;98368.31;;;7.99;100.00
5283;BME280;15376;48.540;9.268;2022-10-03T19:14:15;98366.53;;;7.90;100.00
5283;BME280;15376;48.540;9.268;2022-10-03T19:16:56;98364.44;;;7.93;100.00
5283;BME280;15376;48.540;9.268;2022-10-03T19:22:12;98361.94;;;7.92;100.00
5283;BME280;15376;48.540;9.268;2022-10-03T19:24:39;98361.13;;;7.82;100.00
5283;BME280;15376;48.540;9.268;2022-10-03T19:27:21;98367.28;;;7.73;100.00
5283;BME280;15376;48.540;9.268;2022-10-03T19:29:54;98363.66;;;7.74;100.00
5283;BME280;15376;48.540;9.268;2022-10-03T19:32:41;98338.53;;;7.50;100.00
5283;BME280;15376;48.540;9.268;2022-10-03T19:35:12;98378.31;;;7.58;100.00
5283;BME280;15376;48.540;9.268;2022-10-03T19:37:44;98374.28;;;7.54;100.00
5283;BME280;15376;48.540;9.268;2022-10-03T19:43:46;98381.53;;;7.43;100.00
5283;BME280;15376;48.540;9.268;2022-10-03T19:48:47;98371.78;;;7.24;100.00
5283;BME280;15376;48.540;9.268;2022-10-03T19:51:16;98380.84;;;7.31;100.00
5283;BME280;15376;48.540;9.268;2022-10-03T19:53:43;98389.88;;;7.28;100.00
5283;BME280;15376;48.540;9.268;2022-10-03T19:56:14;98381.66;;;7.22;100.00
5283;BME280;15376;48.540;9.268;2022-10-03T19:58:43;98351.25;;;6.98;100.00
5283;BME280;15376;48.540;9.268;2022-10-03T20:01:09;98374.59;;;7.13;100.00
5283;BME280;15376;48.540;9.268;2022-10-03T20:03:50;98362.38;;;7.12;100.00
5283;BME280;15376;48.540;9.268;2022-10-03T20:06:30;98349.28;;;7.20;100.00
5283;BME280;15376;48.540;9.268;2022-10-03T20:09:18;98357.22;;;7.00;100.00
5283;BME280;15376;48.540;9.268;2022-10-03T20:11:49;98369.47;;;7.01;100.00
5283;BME280;15376;48.540;9.268;2022-10-03T20:14:20;98371.38;;;6.90;100.00
5283;BME280;15376;48.540;9.268;2022-10-03T20:16:58;98367.75;;;6.81;100.00
5283;BME280;15376;48.540;9.268;2022-10-03T20:19:52;98344.97;;;6.61;100.00
5283;BME280;15376;48.540;9.268;2022-10-03T20:22:20;98363.91;;;6.76;100.00
5283;BME280;15376;48.540;9.268;2022-10-03T20:24:48;98357.06;;;6.83;100.00
5283;BME280;15376;48.540;9.268;2022-10-03T20:32:30;98347.91;;;6.77;100.00
5283;BME280;15376;48.540;9.268;2022-10-03T20:34:57;98353.47;;;6.84;100.00
5283;BME280;15376;48.540;9.268;2022-10-03T20:37:46;98355.84;;;6.77;100.00
5283;BME280;15376;48.540;9.268;2022-10-03T20:40:30;98328.72;;;6.56;100.00
5283;BME280;15376;48.540;9.268;2022-10-03T20:43:15;98351.09;;;6.71;100.00
5283;BME280;15376;48.540;9.268;2022-10-03T20:46:01;98345.97;;;6.69;100.00
5283;BME280;15376;48.540;9.268;2022-10-03T20:48:32;98349.31;;;6.72;100.00
5283;BME280;15376;48.540;9.268;2022-10-03T20:50:59;98355.97;;;6.66;100.00
5283;BME280;15376;48.540;9.268;2022-10-03T20:53:27;98351.63;;;6.55;100.00
5283;BME280;15376;48.540;9.268;2022-10-03T20:56:11;98339.81;;;6.50;100.00
5283;BME280;15376;48.540;9.268;2022-10-03T20:58:45;98341.75;;;6.48;100.00
5283;BME280;15376;48.540;9.268;2022-10-03T21:01:22;98349.22;;;6.43;100.00
5283;BME280;15376;48.540;9.268;2022-10-03T21:04:10;98345.88;;;6.41;100.00
5283;BME280;15376;48.540;9.268;2022-10-03T21:06:54;98342.03;;;6.35;100.00
5283;BME280;15376;48.540;9.268;2022-10-03T21:12:20;98343.41;;;6.49;100.00
5283;BME280;15376;48.540;9.268;2022-10-03T21:14:54;98329.41;;;6.39;100.00
5283;BME280;15376;48.540;9.268;2022-10-03T21:17:21;98348.41;;;6.42;100.00
5283;BME280;15376;48.540;9.268;2022-10-03T21:19:53;98312.38;;;6.12;100.00
5283;BME280;15376;48.540;9.268;2022-10-03T21:22:22;98347.56;;;6.42;100.00
5283;BME280;15376;48.540;9.268;2022-10-03T21:27:18;98342.03;;;6.35;100.00
5283;BME280;15376;48.540;9.268;2022-10-03T21:29:56;98342.16;;;6.33;100.00
5283;BME280;15376;48.540;9.268;2022-10-03T21:46:02;98319.81;;;6.38;100.00
5283;BME280;15376;48.540;9.268;2022-10-03T21:56:41;98315.06;;;6.31;100.00
5283;BME280;15376;48.540;9.268;2022-10-03T22:04:46;98290.28;;;5.94;100.00
5283;BME280;15376;48.540;9.268;2022-10-03T22:07:24;98307.91;;;6.03;100.00
5283;BME280;15376;48.540;9.268;2022-10-03T22:09:54;98305.84;;;5.97;100.00
5283;BME280;15376;48.540;9.268;2022-10-03T22:12:20;98308.88;;;6.02;100.00
5283;BME280;15376;48.540;9.268;2022-10-03T22:15:09;98258.00;;;5.81;100.00
5283;BME280;15376;48.540;9.268;2022-10-03T22:17:38;98297.78;;;6.08;100.00
5283;BME280;15376;48.540;9.268;2022-10-03T22:20:20;98287.06;;;6.00;100.00
5283;BME280;15376;48.540;9.268;2022-10-03T22:23:21;98281.16;;;5.77;100.00
5283;BME280;15376;48.540;9.268;2022-10-03T22:26:50;98287.13;;;5.79;100.00
5283;BME280;15376;48.540;9.268;2022-10-03T22:29:03;98291.63;;;5.88;100.00
5283;BME280;15376;48.540;9.268;2022-10-03T22:34:42;98291.00;;;6.15;100.00
5283;BME280;15376;48.540;9.268;2022-10-03T22:37:12;98284.22;;;6.22;100.00
5283;BME280;15376;48.540;9.268;2022-10-03T22:39:39;98280.84;;;6.01;100.00
5283;BME280;15376;48.540;9.268;2022-10-03T22:42:05;98285.56;;;5.97;100.00
5283;BME280;15376;48.540;9.268;2022-10-03T22:44:33;98294.38;;;5.87;100.00
5283;BME280;15376;48.540;9.268;2022-10-03T22:47:08;98262.59;;;5.48;100.00
5283;BME280;15376;48.540;9.268;2022-10-03T22:49:40;98273.97;;;5.49;100.00
5283;BME280;15376;48.540;9.268;2022-10-03T22:52:22;98268.47;;;5.61;100.00
5283;BME280;15376;48.540;9.268;2022-10-03T22:54:49;98278.16;;;5.51;100.00
5283;BME280;15376;48.540;9.268;2022-10-03T22:57:16;98275.91;;;5.47;100.00
5283;BME280;15376;48.540;9.268;2022-10-03T22:59:59;98286.13;;;5.40;100.00
5283;BME280;15376;48.540;9.268;2022-10-03T23:02:30;98285.50;;;5.27;100.00
5283;BME280;15376;48.540;9.268;2022-10-03T23:05:02;98277.69;;;5.16;100.00
5283;BME280;15376;48.540;9.268;2022-10-03T23:08:03;98279.38;;;5.17;100.00
5283;BME280;15376;48.540;9.268;2022-10-03T23:13:04;98242.31;;;4.88;100.00
5283;BME280;15376;48.540;9.268;2022-10-03T23:15:32;98275.50;;;5.00;100.00
5283;BME280;15376;48.540;9.268;2022-10-03T23:21:08;98271.13;;;4.89;100.00
5283;BME280;15376;48.540;9.268;2022-10-03T23:29:08;98259.50;;;4.92;100.00
5283;BME280;15376;48.540;9.268;2022-10-03T23:31:52;98269.19;;;4.91;100.00
5283;BME280;15376;48.540;9.268;2022-10-03T23:37:00;98258.47;;;5.25;100.00
5283;BME280;15376;48.540;9.268;2022-10-03T23:39:34;98261.16;;;5.34;100.00
5283;BME280;15376;48.540;9.268;2022-10-03T23:42:52;98259.88;;;5.29;100.00
5283;BME280;15376;48.540;9.268;2022-10-03T23:44:53;98240.59;;;5.28;100.00
5283;BME280;15376;48.540;9.268;2022-10-03T23:47:32;98258.38;;;5.36;100.00
5283;BME280;15376;48.540;9.268;2022-10-03T23:50:03;98259.00;;;5.19;100.00
5283;BME280;15376;48.540;9.268;2022-10-03T23:52:43;98228.06;;;5.11;100.00
5283;BME280;15376;48.540;9.268;2022-10-03T23:55:16;98255.13;;;5.23;100.00
5283;BME280;15376;48.540;9.268;2022-10-03T23:57:44;98257.16;;;5.10;100.00
